Weather at Golden Tulip Al Jazira Helipad

Public forecast

Using degrees Celsius for public forecast. Weather courtesy of forecast.io.

Closest aviation weather report (METAR) to Golden Tulip Al Jazira Helipad

Closest report is Al Maktoum International Airport, 14.7 nm (27.2 km) E.

2024/07/21 12:00 (retrieved 55 minutes ago)

OMDW 211200Z 30011KT 270V340 5000 HZ NSC 39/30 Q0994 NOSIG

Closest aviation forecast (TAF) to Golden Tulip Al Jazira Helipad

Closest forecast is Al Maktoum International Airport, 14.7 nm (27.2 km) E.

2024/07/21 12:00 (retrieved 55 minutes ago)

TAF OMDW 211100Z 2112/2218 33014KT 6000 NSC PROB40 2112/2117 4000 HZ BECMG 2120/2122 06005KT PROB30 2120/2205 3000 HZ BECMG 2208/2210 33015KT BECMG 2215/2217 33005KT